Time;durP1;ratioP1;P1;durP2;ratioP2;P2;SDS_P1;SDS_P2;PMS_P1;PMS_P2;Temp;Humidity;BMP_temperature;BMP_pressure;BME280_temperature;BME280_humidity;BME280_pressure;Samples;Min_cycle;Max_cycle;Signal;HPM_P1;HPM_P2
2022/12/12 00:00:54;;;;;;;15.60;10.88;;;;;;;6.36;54.77;100037.84;5024988;28;20372;-77
2022/12/12 00:03:19;;;;;;;15.27;10.63;;;;;;;6.25;55.18;100036.31;5027278;28;20402;-77
2022/12/12 00:05:45;;;;;;;14.37;9.30;;;;;;;6.30;54.95;100041.09;5026505;28;20382;-77
2022/12/12 00:08:10;;;;;;;15.60;9.97;;;;;;;6.32;54.54;100053.13;5028312;28;20381;-77
2022/12/12 00:10:36;;;;;;;14.82;9.75;;;;;;;6.26;54.78;100045.84;5027994;28;20774;-76
2022/12/12 00:13:01;;;;;;;12.93;9.30;;;;;;;6.26;54.73;100050.28;5026069;28;20382;-76
2022/12/12 00:15:27;;;;;;;14.23;9.93;;;;;;;6.25;54.76;100035.50;5026825;28;20410;-77
2022/12/12 00:17:53;;;;;;;13.77;9.33;;;;;;;6.25;54.34;100043.41;5025264;28;20493;-77
2022/12/12 00:20:19;;;;;;;15.00;10.50;;;;;;;6.36;55.04;100053.63;5027506;28;20406;-77
2022/12/12 00:22:44;;;;;;;16.70;10.55;;;;;;;6.45;54.32;100050.03;5024980;28;20906;-77
2022/12/12 00:25:10;;;;;;;15.17;10.77;;;;;;;6.57;54.05;100049.75;5016135;28;20488;-76
2022/12/12 00:27:36;;;;;;;18.07;10.33;;;;;;;6.52;54.09;100044.97;5028488;28;20532;-77
2022/12/12 00:30:02;;;;;;;15.23;10.38;;;;;;;6.57;54.04;100053.22;5027430;28;20436;-77
2022/12/12 00:32:29;;;;;;;14.93;10.50;;;;;;;6.68;53.96;100042.38;5019809;28;20381;-77
2022/12/12 00:34:55;;;;;;;17.42;11.23;;;;;;;6.67;53.88;100050.44;5027691;28;20375;-76
2022/12/12 00:37:20;;;;;;;14.33;10.40;;;;;;;6.62;54.08;100042.19;5030794;28;20560;-77
2022/12/12 00:39:46;;;;;;;15.85;10.75;;;;;;;6.64;53.64;100048.13;5027118;28;20391;-76
2022/12/12 00:42:11;;;;;;;15.05;10.18;;;;;;;6.64;53.70;100042.84;5016898;28;20399;-77
2022/12/12 00:44:37;;;;;;;14.90;10.30;;;;;;;6.59;53.67;100040.72;5013411;28;20790;-77
2022/12/12 00:47:02;;;;;;;17.23;9.93;;;;;;;6.55;54.10;100047.25;5013069;28;20879;-77
2022/12/12 00:49:29;;;;;;;13.27;9.20;;;;;;;6.50;53.83;100044.31;5011875;28;20808;-79
2022/12/12 00:51:54;;;;;;;16.13;10.43;;;;;;;6.49;53.67;100032.94;5012866;28;20840;-77
2022/12/12 00:54:20;;;;;;;16.33;10.57;;;;;;;6.44;54.00;100045.75;5012354;28;20864;-77
2022/12/12 00:56:47;;;;;;;15.82;9.75;;;;;;;6.43;53.96;100049.38;5012086;28;21322;-79
2022/12/12 00:59:13;;;;;;;14.15;10.07;;;;;;;6.35;54.02;100045.88;5014711;28;20392;-77
2022/12/12 01:01:39;;;;;;;15.55;10.32;;;;;;;6.40;53.45;100054.13;5014771;28;20443;-77
2022/12/12 01:04:05;;;;;;;13.70;9.93;;;;;;;6.35;53.68;100056.41;5013412;28;20474;-76
2022/12/12 01:06:31;;;;;;;17.10;10.53;;;;;;;6.31;54.15;100059.34;5013510;28;20380;-78
2022/12/12 01:08:56;;;;;;;14.47;10.30;;;;;;;6.32;54.10;100058.38;5014766;28;20416;-78
2022/12/12 01:11:22;;;;;;;14.40;10.18;;;;;;;6.28;53.77;100050.97;5015327;28;20387;-78
2022/12/12 01:13:51;;;;;;;14.33;10.30;;;;;;;6.16;54.10;100044.31;5014802;28;20484;-78
2022/12/12 01:16:17;;;;;;;14.18;9.68;;;;;;;6.06;53.97;100044.44;5009838;28;20436;-77
2022/12/12 01:18:42;;;;;;;13.13;9.88;;;;;;;5.98;54.58;100045.25;5008870;28;20388;-78
2022/12/12 01:21:13;;;;;;;13.73;9.80;;;;;;;5.97;54.12;100050.66;5016678;28;20447;-78
2022/12/12 01:23:39;;;;;;;14.05;9.80;;;;;;;6.10;53.83;100062.41;5015931;28;20399;-78
2022/12/12 01:26:13;;;;;;;15.35;9.88;;;;;;;6.16;53.71;100065.38;5016322;28;20860;-78
2022/12/12 01:28:39;;;;;;;13.48;9.75;;;;;;;6.21;53.87;100073.63;5012040;28;20386;-78
2022/12/12 01:31:05;;;;;;;14.55;9.52;;;;;;;6.14;53.97;100068.19;5006805;28;21113;-79
2022/12/12 01:33:31;;;;;;;13.05;9.23;;;;;;;6.20;53.96;100069.38;5016490;28;20442;-78
2022/12/12 01:35:56;;;;;;;14.73;9.82;;;;;;;6.24;53.41;100066.25;5016645;28;20380;-78
2022/12/12 01:38:25;;;;;;;13.27;9.88;;;;;;;6.31;53.71;100079.59;5015710;28;20404;-77
2022/12/12 01:40:52;;;;;;;14.73;9.93;;;;;;;6.30;53.54;100078.78;5013080;28;20483;-78
2022/12/12 01:43:20;;;;;;;13.93;9.60;;;;;;;6.38;53.42;100088.53;5015049;28;20451;-78
2022/12/12 01:46:21;;;;;;;13.27;9.95;;;;;;;6.38;53.20;100085.88;5014857;28;20380;-78
2022/12/12 01:48:55;;;;;;;15.20;10.38;;;;;;;6.38;52.97;100098.22;4999946;28;20408;-78
2022/12/12 01:51:23;;;;;;;15.20;10.60;;;;;;;6.35;53.14;100094.09;5011621;28;20396;-76
2022/12/12 01:53:56;;;;;;;15.67;11.07;;;;;;;6.34;53.14;100096.88;5010372;28;20884;-77
2022/12/12 01:56:22;;;;;;;14.02;10.00;;;;;;;6.12;53.27;100099.06;5011027;28;20461;-77
2022/12/12 01:58:52;;;;;;;14.80;9.13;;;;;;;5.89;54.03;100091.69;5010583;28;20419;-77
2022/12/12 02:01:19;;;;;;;13.50;9.23;;;;;;;5.78;54.34;100080.59;5010310;28;20431;-77
2022/12/12 02:03:47;;;;;;;15.30;10.20;;;;;;;5.78;54.40;100075.31;5009033;28;20502;-77
2022/12/12 02:06:17;;;;;;;16.23;10.50;;;;;;;5.81;54.56;100072.41;5010066;28;20388;-77
2022/12/12 02:08:45;;;;;;;14.55;9.90;;;;;;;5.83;54.37;100062.53;5008922;28;20403;-77
2022/12/12 02:11:11;;;;;;;13.55;9.32;;;;;;;5.81;54.33;100077.66;5010188;28;20407;-77
2022/12/12 02:13:37;;;;;;;13.18;8.63;;;;;;;5.66;54.59;100082.66;5010173;28;20471;-77
2022/12/12 02:16:19;;;;;;;13.07;9.10;;;;;;;5.78;54.35;100077.94;5006640;28;20775;-77
2022/12/12 02:19:22;;;;;;;15.00;9.80;;;;;;;5.85;54.31;100079.84;5005191;28;20808;-77
2022/12/12 02:21:56;;;;;;;13.90;9.95;;;;;;;5.87;53.83;100085.75;5011098;28;20487;-77
2022/12/12 02:24:24;;;;;;;16.88;10.75;;;;;;;5.89;53.71;100081.16;5010788;28;20395;-77
2022/12/12 02:27:23;;;;;;;14.15;9.85;;;;;;;5.73;54.05;100074.00;5010814;28;20388;-77
2022/12/12 02:30:12;;;;;;;13.63;9.40;;;;;;;5.61;54.83;100093.63;4998584;28;20391;-77
2022/12/12 02:32:59;;;;;;;15.15;9.50;;;;;;;5.49;54.91;100084.31;5012398;28;20714;-77
2022/12/12 02:35:42;;;;;;;14.85;10.30;;;;;;;5.44;55.13;100087.41;5009179;28;20387;-77
2022/12/12 02:38:19;;;;;;;16.27;11.00;;;;;;;5.44;55.20;100091.84;5010598;28;20467;-77
2022/12/12 02:41:08;;;;;;;13.93;9.35;;;;;;;5.29;55.79;100078.41;5006350;28;20408;-78
2022/12/12 02:44:09;;;;;;;14.70;9.85;;;;;;;5.27;55.50;100077.75;5000223;28;20876;-77
2022/12/12 02:46:47;;;;;;;14.23;9.90;;;;;;;5.33;55.49;100082.38;4998827;28;20594;-78
2022/12/12 02:49:24;;;;;;;14.68;9.63;;;;;;;5.26;55.95;100076.94;5011958;28;20772;-78
2022/12/12 02:51:52;;;;;;;13.20;9.00;;;;;;;5.27;55.63;100077.75;5010292;28;20384;-78
2022/12/12 02:54:20;;;;;;;16.77;10.23;;;;;;;5.14;55.77;100078.13;5011040;28;20411;-78
2022/12/12 02:56:55;;;;;;;15.80;10.20;;;;;;;5.22;56.06;100087.88;5010373;28;20495;-78
2022/12/12 02:59:28;;;;;;;15.43;10.07;;;;;;;5.40;55.42;100083.44;5010143;28;20384;-78
2022/12/12 03:02:16;;;;;;;13.90;9.57;;;;;;;5.35;55.23;100073.38;5009587;28;20410;-77
2022/12/12 03:08:40;;;;;;;15.10;9.80;;;;;;;5.48;55.64;100086.13;4981760;28;20405;-78
2022/12/12 03:11:09;;;;;;;12.52;9.05;;;;;;;5.40;55.16;100069.47;5005463;28;20540;-77
2022/12/12 03:14:10;;;;;;;13.82;9.63;;;;;;;5.32;55.24;100059.72;5010923;28;20384;-78
2022/12/12 03:16:43;;;;;;;13.88;9.20;;;;;;;5.16;56.34;100069.09;4977318;28;20423;-77
2022/12/12 03:19:11;;;;;;;14.50;8.95;;;;;;;5.14;56.45;100071.06;5020736;28;20386;-77
2022/12/12 03:21:45;;;;;;;13.50;9.00;;;;;;;5.29;55.77;100076.59;5018143;28;20421;-77
2022/12/12 03:24:28;;;;;;;13.40;9.13;;;;;;;5.44;55.51;100081.31;5007721;28;21013;-77
2022/12/12 03:27:06;;;;;;;14.07;9.18;;;;;;;5.57;54.94;100078.31;5016362;28;20430;-77
2022/12/12 03:29:52;;;;;;;14.88;9.18;;;;;;;5.43;55.29;100063.91;5010272;28;20428;-78
2022/12/12 03:32:23;;;;;;;14.35;9.43;;;;;;;5.39;56.03;100055.50;5018138;28;20429;-78
2022/12/12 03:34:55;;;;;;;12.23;8.23;;;;;;;5.27;56.02;100052.28;5022453;28;20967;-78
2022/12/12 03:37:30;;;;;;;13.27;8.45;;;;;;;5.21;55.59;100041.56;5020305;28;20396;-77
2022/12/12 03:40:02;;;;;;;13.05;9.18;;;;;;;5.32;55.89;100038.69;5019094;28;20388;-77
2022/12/12 03:42:27;;;;;;;15.27;9.43;;;;;;;5.21;56.45;100047.66;5015844;28;20408;-77
2022/12/12 03:45:03;;;;;;;13.40;9.17;;;;;;;5.26;56.24;100055.91;5020389;28;20467;-77
2022/12/12 03:47:50;;;;;;;14.45;9.13;;;;;;;5.24;56.22;100060.50;5012482;28;20955;-77
2022/12/12 03:50:21;;;;;;;15.50;9.80;;;;;;;5.13;56.05;100063.31;5021443;28;20390;-77
2022/12/12 03:52:58;;;;;;;15.00;10.55;;;;;;;5.19;56.01;100056.66;5017976;28;20464;-77
2022/12/12 03:55:37;;;;;;;18.33;11.33;;;;;;;5.29;56.25;100062.66;5013025;28;20741;-77
2022/12/12 03:58:27;;;;;;;18.20;11.60;;;;;;;5.21;56.01;100068.66;5008685;28;20729;-77
2022/12/12 04:00:56;;;;;;;17.70;11.07;;;;;;;5.10;56.49;100079.41;5009438;28;20416;-77
2022/12/12 04:03:31;;;;;;;13.85;9.13;;;;;;;4.76;57.22;100078.25;5015310;28;21136;-77
2022/12/12 04:06:26;;;;;;;14.48;9.93;;;;;;;4.91;56.99;100080.34;5013404;28;20488;-78
2022/12/12 04:15:08;;;;;;;16.03;9.97;;;;;;;5.17;56.04;100075.19;5014415;28;20375;-78
2022/12/12 04:17:42;;;;;;;14.77;10.05;;;;;;;5.39;55.64;100086.22;5035221;28;20797;-78
2022/12/12 04:23:33;;;;;;;15.10;9.57;;;;;;;5.61;55.39;100103.31;5012012;28;20410;-77
2022/12/12 04:29:04;;;;;;;14.25;9.60;;;;;;;5.32;55.44;100092.06;5014005;28;20903;-77
2022/12/12 04:31:32;;;;;;;13.68;9.45;;;;;;;5.26;55.67;100087.44;5010408;28;20382;-77
2022/12/12 04:34:04;;;;;;;14.60;9.05;;;;;;;5.15;56.18;100099.00;5011577;28;20391;-76
2022/12/12 04:36:32;;;;;;;12.88;8.30;;;;;;;5.06;55.77;100118.28;5013512;28;20474;-77
2022/12/12 04:39:01;;;;;;;14.60;9.90;;;;;;;5.24;55.97;100127.97;5014232;28;20499;-77
2022/12/12 04:41:30;;;;;;;16.13;9.90;;;;;;;5.31;55.47;100127.22;5021755;28;20390;-78
2022/12/12 04:43:58;;;;;;;14.60;10.25;;;;;;;5.25;56.06;100124.38;5019211;28;20394;-77
2022/12/12 04:46:27;;;;;;;11.38;8.25;;;;;;;4.98;55.99;100132.13;5012826;28;20736;-77
2022/12/12 04:48:57;;;;;;;17.85;11.43;;;;;;;5.00;56.54;100134.63;5017395;28;20384;-77
2022/12/12 04:51:32;;;;;;;18.58;11.32;;;;;;;5.10;56.45;100129.31;5011871;28;20391;-77
2022/12/12 04:54:08;;;;;;;13.68;9.63;;;;;;;5.20;56.40;100130.06;5018018;28;20840;-77
2022/12/12 04:56:37;;;;;;;11.90;8.85;;;;;;;5.33;55.83;100134.94;5021402;28;20480;-77
2022/12/12 04:59:04;;;;;;;14.43;9.57;;;;;;;5.18;55.47;100137.28;5028630;28;20382;-76
2022/12/12 05:02:03;;;;;;;12.90;8.75;;;;;;;4.95;56.40;100147.38;5027446;28;20397;-77
2022/12/12 05:04:36;;;;;;;14.77;9.63;;;;;;;4.95;56.69;100150.00;4985828;28;20845;-77
2022/12/12 05:07:17;;;;;;;14.52;9.60;;;;;;;4.85;57.14;100151.88;5008062;28;20393;-77
2022/12/12 05:09:43;;;;;;;9.32;6.57;;;;;;;4.66;57.60;100153.59;5010041;28;20400;-77
2022/12/12 05:12:09;;;;;;;14.07;8.75;;;;;;;4.63;57.55;100153.06;5003019;28;20400;-77
2022/12/12 05:14:34;;;;;;;12.88;8.63;;;;;;;4.75;57.12;100155.38;5000717;28;20399;-76
2022/12/12 05:17:06;;;;;;;11.23;7.77;;;;;;;4.77;57.53;100165.72;5004391;28;20511;-77
2022/12/12 05:19:31;;;;;;;11.77;8.07;;;;;;;4.63;58.26;100168.81;5007249;28;20444;-77
2022/12/12 05:21:57;;;;;;;12.17;8.83;;;;;;;4.96;57.73;100186.63;5005661;28;20766;-77
2022/12/12 05:24:22;;;;;;;12.93;8.88;;;;;;;5.08;57.15;100184.63;5012511;28;20428;-77
2022/12/12 05:26:47;;;;;;;11.67;8.07;;;;;;;5.24;56.05;100184.00;5017936;28;20398;-77
2022/12/12 05:29:13;;;;;;;13.07;8.73;;;;;;;5.14;56.72;100193.72;5009564;28;20387;-77
2022/12/12 05:31:38;;;;;;;11.73;7.93;;;;;;;5.19;56.04;100202.00;5010700;28;20395;-77
2022/12/12 05:34:04;;;;;;;12.85;8.93;;;;;;;5.23;56.87;100199.91;5011419;28;20393;-77
2022/12/12 05:36:30;;;;;;;11.90;8.47;;;;;;;5.26;56.51;100213.56;5010946;28;20400;-78
2022/12/12 05:38:55;;;;;;;13.13;8.37;;;;;;;5.38;55.77;100224.69;5011630;28;20399;-78
2022/12/12 05:41:21;;;;;;;11.93;7.53;;;;;;;5.23;56.11;100226.19;5010315;28;20475;-78
2022/12/12 05:43:46;;;;;;;12.68;8.05;;;;;;;5.19;56.09;100230.09;5012054;28;20841;-79
2022/12/12 05:46:12;;;;;;;13.55;8.98;;;;;;;5.38;55.87;100237.00;5011575;28;20507;-77
2022/12/12 05:48:37;;;;;;;16.42;10.80;;;;;;;5.47;55.26;100238.75;5011716;28;20491;-78
2022/12/12 05:51:03;;;;;;;14.80;9.73;;;;;;;5.49;55.53;100240.28;5004751;28;20394;-78
2022/12/12 05:53:29;;;;;;;15.63;10.60;;;;;;;5.44;55.40;100237.25;5006673;28;20380;-77
2022/12/12 05:55:54;;;;;;;14.60;9.57;;;;;;;5.50;55.31;100243.72;5019401;28;20397;-79
2022/12/12 05:58:20;;;;;;;12.60;8.87;;;;;;;5.60;55.36;100249.75;5025015;28;20436;-77
2022/12/12 06:00:50;;;;;;;16.03;10.30;;;;;;;5.61;54.75;100248.75;5024153;28;20399;-76
2022/12/12 06:03:16;;;;;;;17.70;11.80;;;;;;;5.63;55.11;100261.75;5025009;28;20541;-77
2022/12/12 06:05:41;;;;;;;17.10;13.00;;;;;;;5.70;55.00;100257.56;5008570;28;20426;-76
2022/12/12 06:08:07;;;;;;;15.43;10.93;;;;;;;5.81;54.37;100267.03;5024873;28;20394;-77
2022/12/12 06:10:32;;;;;;;19.77;10.77;;;;;;;5.74;54.98;100270.25;5021316;28;20393;-79
2022/12/12 06:12:58;;;;;;;14.63;10.37;;;;;;;5.78;54.98;100273.41;5016049;28;20480;-77
2022/12/12 06:15:23;;;;;;;14.82;10.65;;;;;;;5.85;54.31;100278.88;5022973;28;20392;-77
2022/12/12 06:17:50;;;;;;;16.23;10.63;;;;;;;5.75;54.53;100277.16;5023932;28;20391;-77
2022/12/12 06:20:16;;;;;;;15.77;10.30;;;;;;;5.65;55.23;100284.28;5029119;28;20379;-77
2022/12/12 06:22:42;;;;;;;12.60;9.35;;;;;;;5.54;55.11;100269.53;5026656;28;20862;-78
2022/12/12 06:25:08;;;;;;;13.88;10.15;;;;;;;5.52;55.53;100281.19;5027215;28;20374;-79
2022/12/12 06:27:33;;;;;;;16.15;9.63;;;;;;;5.43;55.78;100288.16;5021260;28;20407;-77
2022/12/12 06:29:59;;;;;;;16.52;10.20;;;;;;;5.50;55.64;100296.28;5020305;28;20398;-77
2022/12/12 06:32:24;;;;;;;12.82;8.48;;;;;;;5.38;56.05;100307.97;5013122;28;20377;-79
2022/12/12 06:34:50;;;;;;;13.70;9.37;;;;;;;5.20;55.83;100311.38;5011846;28;20400;-77
2022/12/12 06:37:15;;;;;;;18.37;11.67;;;;;;;5.31;56.39;100319.09;5010977;28;20380;-79
2022/12/12 06:39:41;;;;;;;15.73;10.17;;;;;;;5.38;56.29;100323.75;5012020;28;20737;-77
2022/12/12 06:42:06;;;;;;;15.35;11.05;;;;;;;5.15;57.30;100335.47;5010352;28;20396;-78
2022/12/12 06:44:32;;;;;;;18.63;11.77;;;;;;;5.43;56.57;100324.97;5007579;28;20444;-77
2022/12/12 06:46:57;;;;;;;17.37;10.60;;;;;;;5.31;56.85;100329.59;5015533;28;20412;-77
2022/12/12 06:49:23;;;;;;;20.27;13.07;;;;;;;5.44;56.96;100325.78;5014077;28;20708;-79
2022/12/12 06:51:48;;;;;;;19.30;12.88;;;;;;;5.47;56.81;100330.75;5006407;28;20379;-79
2022/12/12 06:54:17;;;;;;;25.03;14.63;;;;;;;5.63;56.12;100325.69;5016772;28;20385;-78
2022/12/12 06:56:43;;;;;;;19.67;13.38;;;;;;;5.67;56.53;100328.84;5023970;28;20699;-79
2022/12/12 06:59:11;;;;;;;20.58;13.52;;;;;;;5.62;56.23;100337.19;5005118;28;20384;-78
2022/12/12 07:01:37;;;;;;;19.65;13.68;;;;;;;5.54;56.39;100337.91;5010030;28;20395;-78
2022/12/12 07:04:03;;;;;;;14.88;10.10;;;;;;;5.57;56.66;100339.41;5010907;28;20819;-79
2022/12/12 07:06:29;;;;;;;19.03;12.37;;;;;;;5.61;56.75;100347.84;5012785;28;20380;-78
2022/12/12 07:08:57;;;;;;;23.33;14.40;;;;;;;5.45;56.59;100348.47;5017426;28;20384;-79
2022/12/12 07:11:24;;;;;;;17.43;11.67;;;;;;;5.53;56.95;100365.19;5008316;28;20383;-79
2022/12/12 07:13:51;;;;;;;16.63;10.77;;;;;;;5.54;57.10;100371.25;5018953;28;20431;-77
2022/12/12 07:16:17;;;;;;;17.40;11.30;;;;;;;5.73;56.73;100373.78;5018234;28;20452;-79
2022/12/12 07:18:42;;;;;;;17.55;11.02;;;;;;;5.78;56.48;100376.00;5011866;28;20430;-78
2022/12/12 07:21:11;;;;;;;18.07;12.03;;;;;;;5.84;56.50;100364.88;5006239;28;20825;-77
2022/12/12 07:23:36;;;;;;;18.20;12.57;;;;;;;5.94;55.92;100376.19;4994962;28;20934;-78
2022/12/12 07:26:05;;;;;;;16.97;11.93;;;;;;;5.89;55.94;100373.16;5012867;28;20471;-78
2022/12/12 07:28:30;;;;;;;16.52;10.93;;;;;;;5.96;56.31;100372.59;5022794;28;20385;-78
2022/12/12 07:30:56;;;;;;;17.10;11.30;;;;;;;5.89;55.64;100380.22;5016014;28;20380;-77
2022/12/12 07:33:21;;;;;;;17.57;10.90;;;;;;;5.75;56.16;100378.91;5011194;28;20376;-77
2022/12/12 07:35:47;;;;;;;12.40;7.95;;;;;;;5.63;55.70;100390.59;5010808;28;20442;-78
2022/12/12 07:38:12;;;;;;;15.27;9.75;;;;;;;5.63;56.51;100385.34;5011786;28;20393;-79
2022/12/12 07:40:38;;;;;;;9.30;6.23;;;;;;;5.58;55.65;100384.94;5011508;28;20394;-77
2022/12/12 07:43:04;;;;;;;11.23;7.70;;;;;;;5.49;55.27;100387.50;5020442;28;20432;-79
2022/12/12 07:45:29;;;;;;;9.40;6.67;;;;;;;5.56;55.08;100403.50;5018670;28;20731;-78
2022/12/12 07:47:55;;;;;;;7.63;5.30;;;;;;;5.39;55.28;100397.19;5023919;28;20414;-77
2022/12/12 07:50:21;;;;;;;8.83;6.23;;;;;;;5.31;55.26;100402.34;5021917;28;20404;-79
2022/12/12 07:52:47;;;;;;;7.63;5.07;;;;;;;5.00;55.41;100397.31;5012251;28;20376;-78
2022/12/12 07:55:12;;;;;;;9.60;6.43;;;;;;;5.15;55.15;100395.06;5011589;28;20376;-78
2022/12/12 07:57:40;;;;;;;7.90;4.90;;;;;;;5.31;54.76;100407.59;5011938;28;20706;-78
2022/12/12 08:00:07;;;;;;;7.35;5.18;;;;;;;5.24;54.84;100402.09;5011712;28;20380;-79
2022/12/12 08:02:33;;;;;;;7.53;5.85;;;;;;;5.29;55.20;100409.53;5017334;28;20404;-78
2022/12/12 08:04:59;;;;;;;7.93;5.93;;;;;;;5.42;54.41;100398.69;5013076;28;20410;-77
2022/12/12 08:07:25;;;;;;;13.23;8.90;;;;;;;5.91;54.33;100412.47;5022806;28;20401;-79
2022/12/12 08:09:51;;;;;;;7.88;5.03;;;;;;;5.81;53.88;100420.41;5017014;28;20388;-78
2022/12/12 08:12:17;;;;;;;10.68;7.13;;;;;;;6.09;53.62;100423.88;5011493;28;20450;-78
2022/12/12 08:14:42;;;;;;;12.25;7.95;;;;;;;6.13;53.89;100427.03;5024573;28;20751;-78
2022/12/12 08:17:08;;;;;;;12.57;8.57;;;;;;;6.32;53.41;100423.47;5021937;28;20926;-78
2022/12/12 08:19:33;;;;;;;12.10;8.37;;;;;;;6.35;53.43;100425.78;5020817;28;20375;-79
2022/12/12 08:21:59;;;;;;;11.50;7.63;;;;;;;6.40;53.64;100420.91;5015127;28;20427;-78
2022/12/12 08:24:24;;;;;;;16.52;10.68;;;;;;;6.56;53.21;100433.41;5016444;28;20414;-79
2022/12/12 08:26:51;;;;;;;14.53;9.10;;;;;;;6.45;53.24;100436.25;5027416;28;20387;-78
2022/12/12 08:29:16;;;;;;;9.07;6.50;;;;;;;6.29;53.18;100450.91;5014917;28;20376;-80
2022/12/12 08:31:42;;;;;;;11.57;8.20;;;;;;;6.37;53.07;100441.44;5020780;28;20446;-78
2022/12/12 08:34:07;;;;;;;11.13;7.50;;;;;;;6.39;52.59;100448.22;5012017;28;20425;-79
2022/12/12 08:36:34;;;;;;;11.17;8.07;;;;;;;6.42;52.80;100453.16;5012865;28;20391;-78
2022/12/12 08:39:09;;;;;;;10.93;7.70;;;;;;;6.17;53.30;100452.09;5012566;28;20456;-79
2022/12/12 08:41:36;;;;;;;16.27;10.20;;;;;;;6.41;53.49;100461.22;4999572;28;20452;-80
2022/12/12 08:44:03;;;;;;;10.70;6.65;;;;;;;6.28;52.98;100462.44;5012637;28;20464;-80
2022/12/12 08:46:28;;;;;;;18.15;11.13;;;;;;;6.56;52.62;100465.00;5013559;28;20800;-79
2022/12/12 08:48:54;;;;;;;10.30;7.80;;;;;;;6.63;52.80;100462.59;5015561;28;20892;-82
2022/12/12 08:51:20;;;;;;;11.90;8.07;;;;;;;6.56;52.30;100458.91;5020168;28;20382;-79
2022/12/12 08:53:50;;;;;;;22.67;13.70;;;;;;;6.75;52.33;100455.28;5022653;28;20382;-80
2022/12/12 08:56:16;;;;;;;15.27;10.07;;;;;;;6.82;51.61;100448.44;5016393;28;20384;-79
2022/12/12 08:58:42;;;;;;;13.90;9.27;;;;;;;6.82;51.86;100457.16;5032961;28;20386;-79
2022/12/12 09:01:16;;;;;;;15.40;10.67;;;;;;;7.02;51.83;100462.25;5032312;28;20384;-79
2022/12/12 09:03:42;;;;;;;9.35;6.97;;;;;;;7.15;51.27;100477.66;5026069;28;20455;-80
2022/12/12 09:06:09;;;;;;;9.40;6.40;;;;;;;7.07;50.83;100476.63;5029759;28;20482;-80
2022/12/12 09:08:35;;;;;;;13.05;7.93;;;;;;;7.16;51.14;100480.16;5031300;28;20382;-79
2022/12/12 09:11:01;;;;;;;12.15;8.25;;;;;;;7.25;50.70;100475.78;5023002;28;20382;-79
2022/12/12 09:13:26;;;;;;;11.98;7.47;;;;;;;7.08;50.38;100480.13;5024700;28;20444;-78
2022/12/12 09:15:52;;;;;;;15.13;9.77;;;;;;;7.22;50.09;100490.09;5015184;28;20380;-79
2022/12/12 09:18:19;;;;;;;13.60;9.00;;;;;;;7.08;49.99;100483.56;5014774;28;20392;-81
2022/12/12 09:20:52;;;;;;;13.52;7.78;;;;;;;7.13;49.40;100475.22;5026653;28;20384;-80
2022/12/12 09:23:18;;;;;;;15.73;10.23;;;;;;;7.23;49.67;100480.38;5028484;28;20421;-79
2022/12/12 09:25:44;;;;;;;19.85;11.55;;;;;;;7.37;49.50;100479.00;5027491;28;20413;-78
2022/12/12 09:28:10;;;;;;;16.95;9.63;;;;;;;7.53;49.27;100470.38;5019288;28;20393;-81
2022/12/12 09:30:36;;;;;;;22.70;11.57;;;;;;;7.52;49.16;100468.69;5015647;28;20390;-79
2022/12/12 09:33:02;;;;;;;14.83;8.97;;;;;;;7.56;49.04;100470.03;5013847;28;20372;-79
2022/12/12 09:35:27;;;;;;;12.13;8.30;;;;;;;7.47;49.17;100479.69;5013526;28;20395;-79
2022/12/12 09:37:53;;;;;;;11.02;7.80;;;;;;;7.46;48.72;100481.53;5013862;28;20386;-78
2022/12/12 09:40:26;;;;;;;12.83;8.87;;;;;;;7.35;49.33;100479.16;5014132;28;20476;-79
2022/12/12 09:42:51;;;;;;;13.73;10.05;;;;;;;7.62;49.38;100475.53;5001952;28;20407;-80
2022/12/12 09:45:18;;;;;;;12.13;8.70;;;;;;;7.74;48.56;100488.44;5014749;28;20392;-79
2022/12/12 09:47:46;;;;;;;11.48;7.22;;;;;;;7.54;48.88;100480.72;5015725;28;20432;-79
2022/12/12 09:50:35;;;;;;;11.38;7.75;;;;;;;7.45;48.77;100490.44;5005065;28;20456;-80
2022/12/12 09:53:05;;;;;;;12.80;9.57;;;;;;;7.21;49.93;100477.88;5001240;28;20845;-80
2022/12/12 09:55:49;;;;;;;10.90;7.93;;;;;;;7.23;49.69;100490.94;5013917;28;20380;-79
2022/12/12 09:58:56;;;;;;;10.23;8.65;;;;;;;6.62;50.92;100493.34;5017141;28;20834;-78
2022/12/12 10:01:30;;;;;;;6.72;4.85;;;;;;;6.23;51.22;100495.41;5006030;28;20395;-78
2022/12/12 10:04:32;;;;;;;9.85;6.22;;;;;;;6.42;51.03;100494.47;5024795;28;20901;-79
2022/12/12 10:07:04;;;;;;;9.27;6.63;;;;;;;6.31;51.19;100498.97;5017236;28;20389;-79
2022/12/12 10:09:34;;;;;;;7.28;5.60;;;;;;;6.02;51.09;100503.56;5023815;28;20411;-79
2022/12/12 10:12:02;;;;;;;8.38;5.55;;;;;;;5.69;51.64;100497.81;5014647;28;20403;-79
2022/12/12 10:14:42;;;;;;;7.17;5.13;;;;;;;5.57;51.34;100486.66;5017416;28;20446;-77
2022/12/12 10:17:16;;;;;;;5.40;4.43;;;;;;;5.29;52.04;100489.19;5010063;28;20436;-79
2022/12/12 10:19:52;;;;;;;8.88;5.95;;;;;;;5.15;53.39;100479.97;5004633;28;20876;-79
2022/12/12 10:22:43;;;;;;;8.90;5.47;;;;;;;4.95;53.64;100488.81;5013089;28;20415;-79
2022/12/12 10:25:19;;;;;;;5.50;4.35;;;;;;;5.17;52.98;100485.09;5013239;28;20379;-80
2022/12/12 10:27:44;;;;;;;6.15;4.25;;;;;;;4.90;53.25;100484.00;5013731;28;20383;-79
2022/12/12 10:30:16;;;;;;;8.45;6.10;;;;;;;5.00;53.44;100494.50;5013163;28;20864;-79
2022/12/12 10:32:48;;;;;;;8.20;6.22;;;;;;;5.08;52.65;100485.94;5012628;28;20380;-78
2022/12/12 10:35:33;;;;;;;7.57;4.90;;;;;;;5.08;52.45;100491.19;5013407;28;20853;-80
2022/12/12 10:38:08;;;;;;;12.10;7.40;;;;;;;4.80;53.76;100467.41;5013442;28;20890;-80
2022/12/12 10:40:36;;;;;;;7.50;5.20;;;;;;;4.99;53.34;100474.47;5014298;28;20470;-80
2022/12/12 10:43:13;;;;;;;10.57;5.57;;;;;;;4.79;53.70;100492.03;5015469;28;20400;-80
2022/12/12 10:45:44;;;;;;;15.48;7.43;;;;;;;4.52;54.01;100497.91;5014177;28;20391;-80
2022/12/12 10:48:10;;;;;;;10.00;6.20;;;;;;;4.49;54.99;100491.16;5015677;28;20449;-79
2022/12/12 10:50:47;;;;;;;5.55;4.60;;;;;;;4.29;55.23;100497.34;5016116;28;20706;-81
2022/12/12 10:53:12;;;;;;;12.85;8.48;;;;;;;4.65;55.25;100509.00;5015003;28;20379;-80
2022/12/12 10:55:48;;;;;;;6.25;4.75;;;;;;;4.52;55.35;100508.41;5014086;28;20396;-81
2022/12/12 10:58:15;;;;;;;7.75;5.60;;;;;;;4.58;55.20;100510.53;5025937;28;21991;-78
2022/12/12 11:00:44;;;;;;;12.40;7.15;;;;;;;4.62;54.91;100506.66;5012598;28;20455;-79
2022/12/12 11:03:25;;;;;;;10.25;7.15;;;;;;;4.74;54.32;100505.56;5016790;28;20827;-78
2022/12/12 11:05:52;;;;;;;21.13;12.88;;;;;;;5.13;53.67;100515.22;5018426;28;20474;-78
2022/12/12 11:08:26;;;;;;;12.52;7.05;;;;;;;4.97;53.78;100529.78;5012760;28;20379;-79
2022/12/12 11:11:22;;;;;;;10.93;6.60;;;;;;;4.49;54.50;100522.66;5012147;28;20375;-78
2022/12/12 11:14:02;;;;;;;14.05;8.45;;;;;;;4.58;54.59;100515.78;5005817;28;20839;-79
2022/12/12 11:16:42;;;;;;;14.38;9.32;;;;;;;4.68;53.64;100513.16;5011664;28;20384;-80
2022/12/12 11:19:19;;;;;;;9.98;6.72;;;;;;;4.76;53.26;100522.00;5002507;28;20376;-80
2022/12/12 11:21:46;;;;;;;11.93;8.27;;;;;;;4.94;53.54;100519.53;5011611;28;20873;-79
2022/12/12 11:24:14;;;;;;;21.48;15.10;;;;;;;5.30;52.46;100511.06;5014076;28;20392;-78
2022/12/12 11:27:02;;;;;;;11.20;7.75;;;;;;;5.10;52.89;100523.41;5015298;28;20381;-79
2022/12/12 11:29:46;;;;;;;9.85;7.25;;;;;;;4.98;53.11;100525.34;5003608;28;20396;-78
2022/12/12 11:32:19;;;;;;;9.15;7.30;;;;;;;4.90;53.19;100507.66;5015845;28;20380;-79
2022/12/12 11:34:50;;;;;;;15.80;11.65;;;;;;;4.95;53.29;100497.56;5012408;28;20380;-79
2022/12/12 11:37:19;;;;;;;9.48;6.13;;;;;;;4.52;54.65;100498.78;5015271;28;20384;-80
2022/12/12 11:39:48;;;;;;;11.20;8.02;;;;;;;4.56;54.52;100492.28;5011502;28;20392;-80
2022/12/12 11:42:13;;;;;;;11.02;8.10;;;;;;;4.53;54.72;100487.28;5014920;28;20487;-80
2022/12/12 11:44:39;;;;;;;13.00;8.40;;;;;;;4.62;54.71;100488.28;5014662;28;20456;-79
2022/12/12 11:47:17;;;;;;;9.13;6.70;;;;;;;4.73;54.29;100482.06;5018334;28;20400;-79
2022/12/12 11:49:51;;;;;;;9.23;6.55;;;;;;;4.65;54.08;100474.88;5005303;28;20450;-78
2022/12/12 11:52:30;;;;;;;15.00;9.73;;;;;;;4.59;54.12;100473.63;5014802;28;20442;-79
2022/12/12 11:54:57;;;;;;;13.80;7.38;;;;;;;4.49;55.00;100483.28;5005690;28;20445;-82